createdAt,value
2022-10-28T00:04:15.039Z,0
2022-10-28T00:09:15.081Z,0
2022-10-28T00:14:12.037Z,0
2022-10-28T00:19:11.332Z,0
2022-10-28T00:24:11.987Z,0
2022-10-28T00:29:09.621Z,0
2022-10-28T00:34:09.641Z,0
2022-10-28T00:39:09.274Z,0
2022-10-28T00:44:08.147Z,0
2022-10-28T00:49:07.962Z,0
2022-10-28T00:54:07.606Z,0
2022-10-28T00:59:01.281Z,0
2022-10-28T01:04:02.423Z,0
2022-10-28T01:09:03.882Z,0
2022-10-28T01:13:59.559Z,0
2022-10-28T01:18:59.268Z,0
2022-10-28T01:23:58.990Z,0
2022-10-28T01:28:57.164Z,0
2022-10-28T01:33:56.382Z,0
2022-10-28T01:38:56.964Z,0
2022-10-28T01:43:58.103Z,0
2022-10-28T01:48:55.165Z,0
2022-10-28T01:53:55.220Z,0
2022-10-28T01:58:54.349Z,0
2022-10-28T02:03:54.233Z,0
2022-10-28T02:08:52.098Z,0
2022-10-28T02:13:51.827Z,0
2022-10-28T02:18:51.904Z,0
2022-10-28T02:23:52.051Z,0
2022-10-28T02:28:50.619Z,0
2022-10-28T02:33:49.786Z,0
2022-10-28T02:38:49.694Z,0
2022-10-28T02:43:48.897Z,0
2022-10-28T02:48:49.500Z,0
2022-10-28T02:53:46.661Z,0
2022-10-28T02:58:46.348Z,0
2022-10-28T03:03:45.575Z,0
2022-10-28T03:08:45.144Z,0
2022-10-28T03:13:43.513Z,0
2022-10-28T03:18:43.129Z,0
2022-10-28T03:23:42.935Z,0
2022-10-28T03:28:43.562Z,0
2022-10-28T03:33:40.706Z,0
2022-10-28T03:38:40.797Z,0
2022-10-28T03:43:39.217Z,0
2022-10-28T03:48:39.300Z,0
2022-10-28T03:53:37.634Z,0
2022-10-28T03:58:44.046Z,0
2022-10-28T03:59:58.733Z,0
2022-10-28T04:04:58.296Z,0
2022-10-28T04:09:58.820Z,0
2022-10-28T04:14:57.186Z,0
2022-10-28T04:19:56.803Z,0
2022-10-28T04:24:56.222Z,0
2022-10-28T04:29:56.890Z,0
2022-10-28T04:34:53.771Z,0
2022-10-28T04:39:53.894Z,0
2022-10-28T04:44:52.843Z,0
2022-10-28T04:49:53.222Z,0
2022-10-28T04:54:50.391Z,0
2022-10-28T04:59:17.773Z,0
2022-10-28T05:04:17.236Z,0
2022-10-28T05:09:18.483Z,0
2022-10-28T05:14:14.920Z,0
2022-10-28T05:19:15.049Z,0
2022-10-28T05:24:13.958Z,0
2022-10-28T05:29:14.192Z,0
2022-10-28T05:34:12.086Z,0
2022-10-28T05:39:11.844Z,0
2022-10-28T05:44:12.144Z,0
2022-10-28T05:49:11.341Z,0
2022-10-28T05:54:10.072Z,0
2022-10-28T05:58:56.837Z,0
2022-10-28T06:03:57.243Z,0
2022-10-28T06:08:55.724Z,0
2022-10-28T06:13:55.443Z,0
2022-10-28T06:18:53.404Z,0
2022-10-28T06:23:52.587Z,0
2022-10-28T06:28:50.851Z,0.01
2022-10-28T06:33:50.754Z,0.01
2022-10-28T06:38:48.677Z,0.01
2022-10-28T06:43:48.352Z,0.01
2022-10-28T06:48:48.958Z,0.01
2022-10-28T06:53:50.408Z,0.01
2022-10-28T06:58:47.088Z,0.01
2022-10-28T07:00:08.434Z,0.01
2022-10-28T07:05:07.632Z,0.01
2022-10-28T07:10:06.852Z,0.01
2022-10-28T07:15:06.008Z,0.01
2022-10-28T07:20:05.624Z,0.01
2022-10-28T07:25:05.638Z,0.02
2022-10-28T07:30:04.764Z,0.02
2022-10-28T07:35:04.113Z,0.02
2022-10-28T07:40:03.777Z,0.02
2022-10-28T07:45:03.736Z,0.02
2022-10-28T07:50:03.078Z,0.02
2022-10-28T07:55:03.641Z,0.03
2022-10-28T07:59:33.578Z,0.03
2022-10-28T08:04:33.872Z,0.03
2022-10-28T08:09:33.512Z,0.03
2022-10-28T08:14:32.473Z,0.05
2022-10-28T08:19:32.097Z,0.08
2022-10-28T08:24:33.527Z,0.09
2022-10-28T08:29:32.825Z,0.1
2022-10-28T08:39:18.200Z,0.1
2022-10-28T08:44:19.024Z,0.1
2022-10-28T08:49:16.263Z,0.1
2022-10-28T08:54:16.593Z,0.09
2022-10-28T08:59:03.634Z,0.09
2022-10-28T09:04:03.636Z,0.13
2022-10-28T09:09:01.475Z,0.14
2022-10-28T09:14:01.358Z,0.12
2022-10-28T09:19:01.408Z,0.11
2022-10-28T09:24:01.158Z,0.1
2022-10-28T09:29:01.594Z,0.11
2022-10-28T09:33:59.612Z,0.12
2022-10-28T09:39:52.575Z,0.18
2022-10-28T09:43:58.991Z,0.17
2022-10-28T09:48:59.003Z,0.15
2022-10-28T09:53:57.863Z,0.15
2022-10-28T09:58:57.595Z,0.19
2022-10-28T10:03:55.923Z,0.21
2022-10-28T10:08:55.549Z,0.23
2022-10-28T10:13:55.510Z,0.22
2022-10-28T10:18:55.570Z,0.22
2022-10-28T10:23:55.406Z,0.21
2022-10-28T10:28:54.242Z,0.19
2022-10-28T10:33:53.926Z,0.2
2022-10-28T10:38:53.237Z,0.22
2022-10-28T10:43:54.598Z,0.23
2022-10-28T10:48:51.186Z,0.36
2022-10-28T10:53:51.629Z,0.28
2022-10-28T10:58:50.725Z,0.33
2022-10-28T11:03:51.012Z,0.33
2022-10-28T11:08:49.255Z,0.29
2022-10-28T11:13:49.235Z,0.28
2022-10-28T11:18:49.795Z,0.34
2022-10-28T11:23:48.593Z,0.26
2022-10-28T11:28:48.358Z,0.26
2022-10-28T11:33:49.092Z,0.29
2022-10-28T11:38:48.829Z,0.29
2022-10-28T11:43:56.872Z,0.24
2022-10-28T11:48:45.703Z,0.33
2022-10-28T11:53:45.392Z,0.26
2022-10-28T11:58:45.541Z,0.36
2022-10-28T12:00:07.284Z,0.35
2022-10-28T12:05:06.766Z,0.32
2022-10-28T12:10:06.340Z,0.31
2022-10-28T12:15:06.855Z,0.31
2022-10-28T12:20:06.131Z,0.3
2022-10-28T12:25:07.503Z,0.3
2022-10-28T12:30:05.742Z,0.29
2022-10-28T12:35:05.159Z,0.26
2022-10-28T12:40:04.208Z,0.29
2022-10-28T12:45:03.488Z,0.27
2022-10-28T12:50:02.151Z,0.26
2022-10-28T12:55:01.768Z,0.26
2022-10-28T12:59:32.246Z,0.25
2022-10-28T13:04:33.818Z,0.25
2022-10-28T13:09:40.201Z,0.24
2022-10-28T13:14:30.723Z,0.22
2022-10-28T13:19:32.317Z,0.21
2022-10-28T13:24:17.729Z,0.21
2022-10-28T13:29:17.534Z,0.18
2022-10-28T13:34:16.723Z,0.17
2022-10-28T13:39:17.372Z,0.15
2022-10-28T13:44:14.452Z,0.16
2022-10-28T13:49:13.986Z,0.15
2022-10-28T13:54:12.756Z,0.15
2022-10-28T13:59:00.495Z,0.13
2022-10-28T14:03:59.106Z,0.12
2022-10-28T14:08:58.283Z,0.12
2022-10-28T14:13:59.817Z,0.12
2022-10-28T14:18:57.691Z,0.11
2022-10-28T14:23:56.929Z,0.1
2022-10-28T14:28:55.761Z,0.08
2022-10-28T14:33:55.855Z,0.08
2022-10-28T14:38:54.588Z,0.08
2022-10-28T14:43:55.361Z,0.07
2022-10-28T14:48:52.156Z,0.06
2022-10-28T14:53:52.005Z,0.06
2022-10-28T14:58:50.883Z,0.05
2022-10-28T15:00:12.620Z,0.05
2022-10-28T15:05:12.132Z,0.04
2022-10-28T15:10:32.473Z,0.04
2022-10-28T15:15:11.295Z,0.03
2022-10-28T15:20:11.933Z,0.03
2022-10-28T15:25:08.904Z,0.02
2022-10-28T15:30:08.505Z,0.02
2022-10-28T15:35:24.780Z,0.02
2022-10-28T15:40:14.435Z,0.01
2022-10-28T15:45:05.233Z,0.01
2022-10-28T15:50:05.652Z,0.01
2022-10-28T15:55:04.634Z,0
2022-10-28T15:59:35.146Z,0
2022-10-28T16:04:33.722Z,0
2022-10-28T16:09:33.958Z,0
2022-10-28T16:14:33.732Z,0
2022-10-28T16:19:32.963Z,0
2022-10-28T16:24:33.161Z,0
2022-10-28T16:29:32.736Z,0
2022-10-28T16:34:30.281Z,0
2022-10-28T16:39:29.976Z,0
2022-10-28T16:44:30.019Z,0
2022-10-28T16:49:29.466Z,0
2022-10-28T16:54:30.220Z,0
2022-10-28T16:59:06.575Z,0
2022-10-28T17:04:05.862Z,0
2022-10-28T17:09:06.658Z,0
2022-10-28T17:14:05.090Z,0
2022-10-28T17:19:03.984Z,0
2022-10-28T17:24:04.817Z,0
2022-10-28T17:29:02.279Z,0
2022-10-28T17:34:02.735Z,0
2022-10-28T17:39:01.156Z,0
2022-10-28T17:44:00.187Z,0
2022-10-28T17:48:58.593Z,0
2022-10-28T17:53:58.234Z,0
2022-10-28T17:58:57.860Z,0
2022-10-28T18:03:58.925Z,0
2022-10-28T18:08:56.354Z,0
2022-10-28T18:13:56.250Z,0
2022-10-28T18:18:55.203Z,0
2022-10-28T18:23:55.227Z,0
2022-10-28T18:28:53.137Z,0
2022-10-28T18:33:52.408Z,0
2022-10-28T18:38:52.555Z,0
2022-10-28T18:43:51.925Z,0
2022-10-28T18:48:50.900Z,0
2022-10-28T18:53:50.312Z,0
2022-10-28T18:58:50.297Z,0
2022-10-28T19:03:49.180Z,0
2022-10-28T19:08:51.248Z,0
2022-10-28T19:13:48.655Z,0
2022-10-28T19:18:47.013Z,0
2022-10-28T19:23:46.108Z,0
2022-10-28T19:28:45.456Z,0
2022-10-28T19:33:43.823Z,0
2022-10-28T19:38:43.680Z,0
2022-10-28T19:43:42.699Z,0
2022-10-28T19:48:43.665Z,0
2022-10-28T19:53:40.167Z,0
2022-10-28T19:58:41.297Z,0
2022-10-28T20:00:02.258Z,0
2022-10-28T20:05:01.848Z,0
2022-10-28T20:10:00.618Z,0
2022-10-28T20:14:59.240Z,0
2022-10-28T20:19:58.885Z,0
2022-10-28T20:24:58.649Z,0
2022-10-28T20:29:57.695Z,0
2022-10-28T20:34:57.567Z,0
2022-10-28T20:40:08.323Z,0
2022-10-28T20:44:56.458Z,0
2022-10-28T20:49:57.688Z,0
2022-10-28T20:54:54.519Z,0
2022-10-28T20:59:14.632Z,0
2022-10-28T21:04:13.906Z,0
2022-10-28T21:09:13.798Z,0
2022-10-28T21:14:32.176Z,0
2022-10-28T21:19:10.413Z,0
2022-10-28T21:24:10.083Z,0
2022-10-28T21:29:10.770Z,0
2022-10-28T21:34:11.604Z,0
2022-10-28T21:39:07.681Z,0
2022-10-28T21:44:07.725Z,0
2022-10-28T21:49:06.878Z,0
2022-10-28T21:54:05.412Z,0
2022-10-28T21:59:03.309Z,0
2022-10-28T22:04:03.052Z,0
2022-10-28T22:09:01.608Z,0
2022-10-28T22:14:00.486Z,0
2022-10-28T22:18:59.874Z,0
2022-10-28T22:24:00.209Z,0
2022-10-28T22:28:59.149Z,0
2022-10-28T22:33:59.873Z,0
2022-10-28T22:38:57.307Z,0
2022-10-28T22:43:56.887Z,0
2022-10-28T22:48:55.816Z,0
2022-10-28T22:53:56.039Z,0
2022-10-28T22:58:55.585Z,0
2022-10-28T23:03:55.715Z,0
2022-10-28T23:08:54.592Z,0
2022-10-28T23:13:55.684Z,0
2022-10-28T23:18:53.043Z,0
2022-10-28T23:23:56.530Z,0
2022-10-28T23:28:52.254Z,0
2022-10-28T23:33:52.108Z,0
2022-10-28T23:38:50.100Z,0
2022-10-28T23:43:52.024Z,0
2022-10-28T23:48:49.714Z,0
2022-10-28T23:53:49.208Z,0
2022-10-28T23:58:48.327Z,0
